Terminal Aerodrome Forecast
Issued by NWS

Home | Current Version | Previous Version | Text Only | Print | Product List | Glossary On
Versions: 1 2 3 4 5 6 7 8 9 10 11 12 13 14 15 16 17
306
FTUS41 KCAR 221127
TAFPQI
TAF
KPQI 221127Z 2212/2312 18008KT P6SM -SHRA SCT015 OVC070
     FM221400 21010KT 3SM -RA SCT010 BKN020
     FM221800 26012G22KT P6SM VCTS SCT010 BKN025CB
     FM222000 32012G22KT P6SM SCT025 BKN040
     FM230000 32007KT P6SM BKN070
      AMD LTD TO CLD VIS AND WIND=

USA.gov is the U.S. government's official web portal to all federal, state and local government web resources and services.